sensor_id;sensor_type;location;lat;lon;timestamp;P1;durP1;ratioP1;P2;durP2;ratioP2
9276;SDS011;4676;42.678;23.244;2023-05-10T00:00:33;6.53;;;5.80;;
9276;SDS011;4676;42.678;23.244;2023-05-10T00:03:00;6.50;;;5.77;;
9276;SDS011;4676;42.678;23.244;2023-05-10T00:05:29;6.90;;;6.07;;
9276;SDS011;4676;42.678;23.244;2023-05-10T00:07:56;5.70;;;5.20;;
9276;SDS011;4676;42.678;23.244;2023-05-10T00:10:23;6.17;;;5.67;;
9276;SDS011;4676;42.678;23.244;2023-05-10T00:12:51;6.10;;;5.63;;
9276;SDS011;4676;42.678;23.244;2023-05-10T00:15:17;6.20;;;5.80;;
9276;SDS011;4676;42.678;23.244;2023-05-10T00:17:44;5.83;;;5.33;;
9276;SDS011;4676;42.678;23.244;2023-05-10T00:20:11;6.57;;;6.07;;
9276;SDS011;4676;42.678;23.244;2023-05-10T00:22:38;6.27;;;5.87;;
9276;SDS011;4676;42.678;23.244;2023-05-10T00:25:05;7.70;;;5.50;;
9276;SDS011;4676;42.678;23.244;2023-05-10T00:27:33;6.53;;;6.03;;
9276;SDS011;4676;42.678;23.244;2023-05-10T00:30:01;6.30;;;5.90;;
9276;SDS011;4676;42.678;23.244;2023-05-10T00:32:28;7.30;;;6.30;;
9276;SDS011;4676;42.678;23.244;2023-05-10T00:34:54;6.50;;;6.00;;
9276;SDS011;4676;42.678;23.244;2023-05-10T00:37:21;6.23;;;5.73;;
9276;SDS011;4676;42.678;23.244;2023-05-10T00:39:48;6.17;;;5.77;;
9276;SDS011;4676;42.678;23.244;2023-05-10T00:42:14;6.67;;;6.07;;
9276;SDS011;4676;42.678;23.244;2023-05-10T00:44:41;6.37;;;5.87;;
9276;SDS011;4676;42.678;23.244;2023-05-10T00:47:09;6.53;;;6.03;;
9276;SDS011;4676;42.678;23.244;2023-05-10T00:49:36;6.20;;;5.73;;
9276;SDS011;4676;42.678;23.244;2023-05-10T00:52:03;6.00;;;5.37;;
9276;SDS011;4676;42.678;23.244;2023-05-10T00:54:31;6.60;;;6.10;;
9276;SDS011;4676;42.678;23.244;2023-05-10T00:56:57;6.80;;;6.30;;
9276;SDS011;4676;42.678;23.244;2023-05-10T00:59:24;6.77;;;6.27;;
9276;SDS011;4676;42.678;23.244;2023-05-10T01:01:51;7.03;;;6.53;;
9276;SDS011;4676;42.678;23.244;2023-05-10T01:04:19;7.90;;;7.30;;
9276;SDS011;4676;42.678;23.244;2023-05-10T01:06:50;7.33;;;6.77;;
9276;SDS011;4676;42.678;23.244;2023-05-10T01:09:17;7.13;;;6.47;;
9276;SDS011;4676;42.678;23.244;2023-05-10T01:11:44;7.50;;;6.90;;
9276;SDS011;4676;42.678;23.244;2023-05-10T01:14:11;7.37;;;6.67;;
9276;SDS011;4676;42.678;23.244;2023-05-10T01:16:39;7.80;;;7.20;;
9276;SDS011;4676;42.678;23.244;2023-05-10T01:19:18;7.23;;;6.73;;
9276;SDS011;4676;42.678;23.244;2023-05-10T01:21:49;7.17;;;6.70;;
9276;SDS011;4676;42.678;23.244;2023-05-10T01:24:30;8.80;;;8.07;;
9276;SDS011;4676;42.678;23.244;2023-05-10T01:27:28;7.63;;;7.10;;
9276;SDS011;4676;42.678;23.244;2023-05-10T01:30:17;7.20;;;6.70;;
9276;SDS011;4676;42.678;23.244;2023-05-10T01:33:02;7.90;;;7.27;;
9276;SDS011;4676;42.678;23.244;2023-05-10T01:35:37;7.87;;;7.27;;
9276;SDS011;4676;42.678;23.244;2023-05-10T01:38:10;7.70;;;7.17;;
9276;SDS011;4676;42.678;23.244;2023-05-10T01:40:46;10.07;;;6.87;;
9276;SDS011;4676;42.678;23.244;2023-05-10T01:43:19;6.77;;;6.27;;
9276;SDS011;4676;42.678;23.244;2023-05-10T01:45:50;7.23;;;6.50;;
9276;SDS011;4676;42.678;23.244;2023-05-10T01:48:27;7.03;;;6.40;;
9276;SDS011;4676;42.678;23.244;2023-05-10T01:50:56;6.60;;;6.10;;
9276;SDS011;4676;42.678;23.244;2023-05-10T01:53:24;5.93;;;5.60;;
9276;SDS011;4676;42.678;23.244;2023-05-10T01:55:51;7.07;;;6.37;;
9276;SDS011;4676;42.678;23.244;2023-05-10T01:58:20;6.00;;;5.60;;
9276;SDS011;4676;42.678;23.244;2023-05-10T02:00:51;5.77;;;5.00;;
9276;SDS011;4676;42.678;23.244;2023-05-10T02:03:20;5.10;;;4.80;;
9276;SDS011;4676;42.678;23.244;2023-05-10T02:05:50;5.43;;;5.00;;
9276;SDS011;4676;42.678;23.244;2023-05-10T02:08:19;5.60;;;5.30;;
9276;SDS011;4676;42.678;23.244;2023-05-10T02:10:48;5.23;;;4.77;;
9276;SDS011;4676;42.678;23.244;2023-05-10T02:13:16;5.50;;;5.20;;
9276;SDS011;4676;42.678;23.244;2023-05-10T02:15:45;5.03;;;4.73;;
9276;SDS011;4676;42.678;23.244;2023-05-10T02:18:14;5.50;;;5.10;;
9276;SDS011;4676;42.678;23.244;2023-05-10T02:20:43;5.20;;;4.80;;
9276;SDS011;4676;42.678;23.244;2023-05-10T02:23:13;5.50;;;5.00;;
9276;SDS011;4676;42.678;23.244;2023-05-10T02:25:41;4.60;;;4.40;;
9276;SDS011;4676;42.678;23.244;2023-05-10T02:28:09;4.93;;;4.63;;
9276;SDS011;4676;42.678;23.244;2023-05-10T02:30:38;5.33;;;4.97;;
9276;SDS011;4676;42.678;23.244;2023-05-10T02:33:05;5.23;;;4.93;;
9276;SDS011;4676;42.678;23.244;2023-05-10T02:35:33;5.07;;;4.70;;
9276;SDS011;4676;42.678;23.244;2023-05-10T02:38:01;5.37;;;4.87;;
9276;SDS011;4676;42.678;23.244;2023-05-10T02:40:30;5.37;;;5.00;;
9276;SDS011;4676;42.678;23.244;2023-05-10T02:42:58;4.27;;;4.07;;
9276;SDS011;4676;42.678;23.244;2023-05-10T02:45:29;5.87;;;5.00;;
9276;SDS011;4676;42.678;23.244;2023-05-10T02:47:58;4.47;;;4.17;;
9276;SDS011;4676;42.678;23.244;2023-05-10T02:50:25;5.60;;;5.20;;
9276;SDS011;4676;42.678;23.244;2023-05-10T02:52:56;5.10;;;4.60;;
9276;SDS011;4676;42.678;23.244;2023-05-10T02:55:31;4.97;;;4.67;;
9276;SDS011;4676;42.678;23.244;2023-05-10T02:58:01;5.70;;;4.90;;
9276;SDS011;4676;42.678;23.244;2023-05-10T03:00:29;5.33;;;4.97;;
9276;SDS011;4676;42.678;23.244;2023-05-10T03:02:56;5.67;;;5.00;;
9276;SDS011;4676;42.678;23.244;2023-05-10T03:05:22;5.60;;;5.03;;
9276;SDS011;4676;42.678;23.244;2023-05-10T03:07:49;5.33;;;4.93;;
9276;SDS011;4676;42.678;23.244;2023-05-10T03:10:16;5.47;;;5.10;;
9276;SDS011;4676;42.678;23.244;2023-05-10T03:12:55;5.07;;;4.60;;
9276;SDS011;4676;42.678;23.244;2023-05-10T03:15:30;5.50;;;5.00;;
9276;SDS011;4676;42.678;23.244;2023-05-10T03:18:06;5.83;;;5.33;;
9276;SDS011;4676;42.678;23.244;2023-05-10T03:20:36;5.60;;;5.27;;
9276;SDS011;4676;42.678;23.244;2023-05-10T03:23:11;6.10;;;5.70;;
9276;SDS011;4676;42.678;23.244;2023-05-10T03:25:39;5.40;;;5.00;;
9276;SDS011;4676;42.678;23.244;2023-05-10T03:28:11;5.80;;;5.40;;
9276;SDS011;4676;42.678;23.244;2023-05-10T03:30:38;5.60;;;5.20;;
9276;SDS011;4676;42.678;23.244;2023-05-10T03:33:06;5.97;;;5.40;;
9276;SDS011;4676;42.678;23.244;2023-05-10T03:35:33;6.30;;;5.47;;
9276;SDS011;4676;42.678;23.244;2023-05-10T03:38:00;5.17;;;4.80;;
9276;SDS011;4676;42.678;23.244;2023-05-10T03:40:27;5.30;;;5.00;;
9276;SDS011;4676;42.678;23.244;2023-05-10T03:42:56;5.83;;;5.43;;
9276;SDS011;4676;42.678;23.244;2023-05-10T03:45:25;5.17;;;4.77;;
9276;SDS011;4676;42.678;23.244;2023-05-10T03:47:52;5.77;;;5.27;;
9276;SDS011;4676;42.678;23.244;2023-05-10T03:50:19;5.57;;;4.80;;
9276;SDS011;4676;42.678;23.244;2023-05-10T03:52:45;9.57;;;4.63;;
9276;SDS011;4676;42.678;23.244;2023-05-10T03:55:12;5.60;;;5.17;;
9276;SDS011;4676;42.678;23.244;2023-05-10T03:57:39;4.90;;;4.50;;
9276;SDS011;4676;42.678;23.244;2023-05-10T04:00:06;4.70;;;4.30;;
9276;SDS011;4676;42.678;23.244;2023-05-10T04:02:34;8.90;;;4.13;;
9276;SDS011;4676;42.678;23.244;2023-05-10T04:05:01;5.07;;;4.67;;
9276;SDS011;4676;42.678;23.244;2023-05-10T04:07:28;5.13;;;4.73;;
9276;SDS011;4676;42.678;23.244;2023-05-10T04:09:54;4.60;;;4.30;;
9276;SDS011;4676;42.678;23.244;2023-05-10T04:12:21;4.70;;;4.27;;
9276;SDS011;4676;42.678;23.244;2023-05-10T04:14:48;5.20;;;4.63;;
9276;SDS011;4676;42.678;23.244;2023-05-10T04:17:14;5.47;;;5.07;;
9276;SDS011;4676;42.678;23.244;2023-05-10T04:19:42;7.27;;;5.17;;
9276;SDS011;4676;42.678;23.244;2023-05-10T04:22:09;4.83;;;4.53;;
9276;SDS011;4676;42.678;23.244;2023-05-10T04:24:36;9.70;;;8.80;;
9276;SDS011;4676;42.678;23.244;2023-05-10T04:27:03;5.57;;;5.03;;
9276;SDS011;4676;42.678;23.244;2023-05-10T04:29:29;5.40;;;5.00;;
9276;SDS011;4676;42.678;23.244;2023-05-10T04:31:56;5.63;;;5.23;;
9276;SDS011;4676;42.678;23.244;2023-05-10T04:34:23;4.80;;;4.50;;
9276;SDS011;4676;42.678;23.244;2023-05-10T04:36:51;4.87;;;4.57;;
9276;SDS011;4676;42.678;23.244;2023-05-10T04:39:17;5.90;;;5.50;;
9276;SDS011;4676;42.678;23.244;2023-05-10T04:41:44;5.40;;;5.00;;
9276;SDS011;4676;42.678;23.244;2023-05-10T04:44:11;5.40;;;5.00;;
9276;SDS011;4676;42.678;23.244;2023-05-10T04:46:37;6.23;;;5.63;;
9276;SDS011;4676;42.678;23.244;2023-05-10T04:49:04;5.70;;;5.30;;
9276;SDS011;4676;42.678;23.244;2023-05-10T04:51:31;5.70;;;5.17;;
9276;SDS011;4676;42.678;23.244;2023-05-10T04:53:59;5.33;;;4.93;;
9276;SDS011;4676;42.678;23.244;2023-05-10T04:56:26;5.77;;;5.33;;
9276;SDS011;4676;42.678;23.244;2023-05-10T04:58:52;5.40;;;5.00;;
9276;SDS011;4676;42.678;23.244;2023-05-10T05:01:19;4.90;;;4.50;;
9276;SDS011;4676;42.678;23.244;2023-05-10T05:03:46;5.80;;;5.37;;
9276;SDS011;4676;42.678;23.244;2023-05-10T05:06:13;5.10;;;4.77;;
9276;SDS011;4676;42.678;23.244;2023-05-10T05:08:39;5.57;;;5.17;;
9276;SDS011;4676;42.678;23.244;2023-05-10T05:11:07;4.27;;;3.97;;
9276;SDS011;4676;42.678;23.244;2023-05-10T05:13:34;6.47;;;5.50;;
9276;SDS011;4676;42.678;23.244;2023-05-10T05:16:01;5.23;;;4.70;;
9276;SDS011;4676;42.678;23.244;2023-05-10T05:18:28;6.80;;;6.10;;
9276;SDS011;4676;42.678;23.244;2023-05-10T05:20:55;7.97;;;5.43;;
9276;SDS011;4676;42.678;23.244;2023-05-10T05:23:21;5.80;;;5.40;;
9276;SDS011;4676;42.678;23.244;2023-05-10T05:25:50;5.73;;;5.23;;
9276;SDS011;4676;42.678;23.244;2023-05-10T05:28:19;7.93;;;5.50;;
9276;SDS011;4676;42.678;23.244;2023-05-10T05:30:46;6.47;;;5.87;;
9276;SDS011;4676;42.678;23.244;2023-05-10T05:33:13;6.23;;;5.73;;
9276;SDS011;4676;42.678;23.244;2023-05-10T05:35:40;7.37;;;6.23;;
9276;SDS011;4676;42.678;23.244;2023-05-10T05:38:07;6.33;;;5.87;;
9276;SDS011;4676;42.678;23.244;2023-05-10T05:40:34;6.73;;;6.23;;
9276;SDS011;4676;42.678;23.244;2023-05-10T05:43:01;7.37;;;6.80;;
9276;SDS011;4676;42.678;23.244;2023-05-10T05:45:30;6.93;;;6.33;;
9276;SDS011;4676;42.678;23.244;2023-05-10T05:47:56;8.20;;;7.00;;
9276;SDS011;4676;42.678;23.244;2023-05-10T05:50:23;5.53;;;5.13;;
9276;SDS011;4676;42.678;23.244;2023-05-10T05:52:50;7.27;;;6.40;;
9276;SDS011;4676;42.678;23.244;2023-05-10T05:55:16;7.83;;;6.93;;
9276;SDS011;4676;42.678;23.244;2023-05-10T05:57:43;8.10;;;7.40;;
9276;SDS011;4676;42.678;23.244;2023-05-10T06:00:10;7.90;;;6.73;;
9276;SDS011;4676;42.678;23.244;2023-05-10T06:02:39;7.77;;;6.80;;
9276;SDS011;4676;42.678;23.244;2023-05-10T06:05:06;7.07;;;6.57;;
9276;SDS011;4676;42.678;23.244;2023-05-10T06:07:33;7.97;;;7.27;;
9276;SDS011;4676;42.678;23.244;2023-05-10T06:10:00;7.97;;;7.03;;
9276;SDS011;4676;42.678;23.244;2023-05-10T06:12:27;8.73;;;6.83;;
9276;SDS011;4676;42.678;23.244;2023-05-10T06:14:54;8.20;;;7.17;;
9276;SDS011;4676;42.678;23.244;2023-05-10T06:17:21;9.20;;;8.27;;
9276;SDS011;4676;42.678;23.244;2023-05-10T06:19:50;9.30;;;8.20;;
9276;SDS011;4676;42.678;23.244;2023-05-10T06:22:17;12.40;;;8.43;;
9276;SDS011;4676;42.678;23.244;2023-05-10T06:24:43;8.23;;;7.53;;
9276;SDS011;4676;42.678;23.244;2023-05-10T06:27:10;7.90;;;7.23;;
9276;SDS011;4676;42.678;23.244;2023-05-10T06:29:37;8.73;;;7.93;;
9276;SDS011;4676;42.678;23.244;2023-05-10T06:32:04;9.40;;;8.50;;
9276;SDS011;4676;42.678;23.244;2023-05-10T06:34:30;9.23;;;6.97;;
9276;SDS011;4676;42.678;23.244;2023-05-10T06:36:59;9.67;;;8.83;;
9276;SDS011;4676;42.678;23.244;2023-05-10T06:39:25;12.17;;;9.03;;
9276;SDS011;4676;42.678;23.244;2023-05-10T06:41:52;10.13;;;7.73;;
9276;SDS011;4676;42.678;23.244;2023-05-10T06:44:19;11.83;;;8.13;;
9276;SDS011;4676;42.678;23.244;2023-05-10T06:46:46;8.10;;;7.47;;
9276;SDS011;4676;42.678;23.244;2023-05-10T06:49:13;9.33;;;7.10;;
9276;SDS011;4676;42.678;23.244;2023-05-10T06:51:39;8.33;;;6.67;;
9276;SDS011;4676;42.678;23.244;2023-05-10T06:54:07;8.90;;;8.00;;
9276;SDS011;4676;42.678;23.244;2023-05-10T06:56:34;8.67;;;7.77;;
9276;SDS011;4676;42.678;23.244;2023-05-10T06:59:01;10.13;;;8.33;;
9276;SDS011;4676;42.678;23.244;2023-05-10T07:01:28;9.50;;;7.13;;
9276;SDS011;4676;42.678;23.244;2023-05-10T07:03:54;8.77;;;8.03;;
9276;SDS011;4676;42.678;23.244;2023-05-10T07:06:21;10.40;;;7.93;;
9276;SDS011;4676;42.678;23.244;2023-05-10T07:08:48;7.83;;;7.07;;
9276;SDS011;4676;42.678;23.244;2023-05-10T07:11:16;8.57;;;7.33;;
9276;SDS011;4676;42.678;23.244;2023-05-10T07:13:42;8.30;;;7.50;;
9276;SDS011;4676;42.678;23.244;2023-05-10T07:16:11;8.27;;;7.47;;
9276;SDS011;4676;42.678;23.244;2023-05-10T07:18:38;9.50;;;7.67;;
9276;SDS011;4676;42.678;23.244;2023-05-10T07:21:04;8.50;;;7.70;;
9276;SDS011;4676;42.678;23.244;2023-05-10T07:23:31;7.97;;;7.17;;
9276;SDS011;4676;42.678;23.244;2023-05-10T07:25:58;7.50;;;6.83;;
9276;SDS011;4676;42.678;23.244;2023-05-10T07:28:26;10.47;;;7.20;;
9276;SDS011;4676;42.678;23.244;2023-05-10T07:30:53;8.50;;;7.70;;
9276;SDS011;4676;42.678;23.244;2023-05-10T07:33:19;9.10;;;8.17;;
9276;SDS011;4676;42.678;23.244;2023-05-10T07:35:46;8.67;;;6.97;;
9276;SDS011;4676;42.678;23.244;2023-05-10T07:38:13;11.13;;;7.77;;
9276;SDS011;4676;42.678;23.244;2023-05-10T07:40:39;8.17;;;7.43;;
9276;SDS011;4676;42.678;23.244;2023-05-10T07:43:06;9.07;;;8.17;;
9276;SDS011;4676;42.678;23.244;2023-05-10T07:45:34;8.97;;;8.07;;
9276;SDS011;4676;42.678;23.244;2023-05-10T07:48:01;8.60;;;7.80;;
9276;SDS011;4676;42.678;23.244;2023-05-10T07:50:28;9.10;;;8.20;;
9276;SDS011;4676;42.678;23.244;2023-05-10T07:52:55;9.20;;;8.40;;
9276;SDS011;4676;42.678;23.244;2023-05-10T07:55:21;8.73;;;8.00;;
9276;SDS011;4676;42.678;23.244;2023-05-10T07:57:48;10.73;;;8.87;;
9276;SDS011;4676;42.678;23.244;2023-05-10T08:00:17;9.43;;;8.43;;
9276;SDS011;4676;42.678;23.244;2023-05-10T08:02:46;9.03;;;8.13;;
9276;SDS011;4676;42.678;23.244;2023-05-10T08:05:13;9.83;;;8.63;;
9276;SDS011;4676;42.678;23.244;2023-05-10T08:07:40;14.77;;;8.90;;
9276;SDS011;4676;42.678;23.244;2023-05-10T08:10:08;9.97;;;8.63;;
9276;SDS011;4676;42.678;23.244;2023-05-10T08:12:36;13.20;;;8.33;;
9276;SDS011;4676;42.678;23.244;2023-05-10T08:15:02;11.47;;;8.60;;
9276;SDS011;4676;42.678;23.244;2023-05-10T08:17:30;10.03;;;9.00;;
9276;SDS011;4676;42.678;23.244;2023-05-10T08:19:58;15.27;;;8.40;;
9276;SDS011;4676;42.678;23.244;2023-05-10T08:22:24;8.97;;;8.07;;
9276;SDS011;4676;42.678;23.244;2023-05-10T08:24:51;11.50;;;9.03;;
9276;SDS011;4676;42.678;23.244;2023-05-10T08:27:18;13.80;;;8.87;;
9276;SDS011;4676;42.678;23.244;2023-05-10T08:29:45;9.43;;;8.63;;
9276;SDS011;4676;42.678;23.244;2023-05-10T08:32:11;9.47;;;8.57;;
9276;SDS011;4676;42.678;23.244;2023-05-10T08:34:38;9.50;;;8.13;;
9276;SDS011;4676;42.678;23.244;2023-05-10T08:37:06;10.27;;;8.50;;
9276;SDS011;4676;42.678;23.244;2023-05-10T08:39:34;9.30;;;8.43;;
9276;SDS011;4676;42.678;23.244;2023-05-10T08:42:01;11.97;;;9.57;;
9276;SDS011;4676;42.678;23.244;2023-05-10T08:44:30;9.07;;;7.93;;
9276;SDS011;4676;42.678;23.244;2023-05-10T08:47:02;9.50;;;8.67;;
9276;SDS011;4676;42.678;23.244;2023-05-10T08:49:31;9.27;;;8.47;;
9276;SDS011;4676;42.678;23.244;2023-05-10T08:51:59;9.07;;;8.27;;
9276;SDS011;4676;42.678;23.244;2023-05-10T08:54:31;9.53;;;8.60;;
9276;SDS011;4676;42.678;23.244;2023-05-10T08:56:58;8.60;;;7.80;;
9276;SDS011;4676;42.678;23.244;2023-05-10T08:59:25;8.27;;;7.57;;
9276;SDS011;4676;42.678;23.244;2023-05-10T09:01:51;9.63;;;8.60;;
9276;SDS011;4676;42.678;23.244;2023-05-10T09:04:20;8.93;;;8.17;;
9276;SDS011;4676;42.678;23.244;2023-05-10T09:06:47;8.83;;;7.93;;
9276;SDS011;4676;42.678;23.244;2023-05-10T09:09:14;9.33;;;8.43;;
9276;SDS011;4676;42.678;23.244;2023-05-10T09:11:43;8.23;;;7.53;;
9276;SDS011;4676;42.678;23.244;2023-05-10T09:14:10;8.40;;;7.80;;
9276;SDS011;4676;42.678;23.244;2023-05-10T09:16:39;8.93;;;7.10;;
9276;SDS011;4676;42.678;23.244;2023-05-10T09:19:06;7.87;;;7.27;;
9276;SDS011;4676;42.678;23.244;2023-05-10T09:21:34;8.37;;;7.87;;
9276;SDS011;4676;42.678;23.244;2023-05-10T09:24:03;9.87;;;8.53;;
9276;SDS011;4676;42.678;23.244;2023-05-10T09:26:30;8.00;;;7.40;;
9276;SDS011;4676;42.678;23.244;2023-05-10T09:28:59;8.03;;;7.33;;
9276;SDS011;4676;42.678;23.244;2023-05-10T09:31:43;8.80;;;8.10;;
9276;SDS011;4676;42.678;23.244;2023-05-10T09:34:13;8.77;;;7.90;;
9276;SDS011;4676;42.678;23.244;2023-05-10T09:36:52;8.70;;;8.00;;
9276;SDS011;4676;42.678;23.244;2023-05-10T09:39:20;10.17;;;9.13;;
9276;SDS011;4676;42.678;23.244;2023-05-10T09:41:47;7.53;;;7.03;;
9276;SDS011;4676;42.678;23.244;2023-05-10T09:44:17;11.27;;;7.73;;
9276;SDS011;4676;42.678;23.244;2023-05-10T09:46:48;8.80;;;8.00;;
9276;SDS011;4676;42.678;23.244;2023-05-10T09:49:17;9.43;;;8.50;;
9276;SDS011;4676;42.678;23.244;2023-05-10T09:51:44;7.37;;;6.87;;
9276;SDS011;4676;42.678;23.244;2023-05-10T09:54:12;7.50;;;6.90;;
9276;SDS011;4676;42.678;23.244;2023-05-10T09:56:40;9.67;;;8.57;;
9276;SDS011;4676;42.678;23.244;2023-05-10T09:59:07;7.80;;;7.20;;
9276;SDS011;4676;42.678;23.244;2023-05-10T10:01:37;9.40;;;7.27;;
9276;SDS011;4676;42.678;23.244;2023-05-10T10:04:04;8.43;;;7.83;;
9276;SDS011;4676;42.678;23.244;2023-05-10T10:06:35;7.77;;;7.27;;
9276;SDS011;4676;42.678;23.244;2023-05-10T10:09:03;9.20;;;8.17;;
9276;SDS011;4676;42.678;23.244;2023-05-10T10:11:30;7.90;;;7.30;;
9276;SDS011;4676;42.678;23.244;2023-05-10T10:13:57;8.77;;;7.00;;
9276;SDS011;4676;42.678;23.244;2023-05-10T10:16:24;7.43;;;6.93;;
9276;SDS011;4676;42.678;23.244;2023-05-10T10:18:54;10.63;;;9.50;;
9276;SDS011;4676;42.678;23.244;2023-05-10T10:21:21;15.20;;;11.00;;
9276;SDS011;4676;42.678;23.244;2023-05-10T10:23:48;7.53;;;7.03;;
9276;SDS011;4676;42.678;23.244;2023-05-10T10:26:15;34.27;;;17.43;;
9276;SDS011;4676;42.678;23.244;2023-05-10T10:28:46;10.63;;;9.10;;
9276;SDS011;4676;42.678;23.244;2023-05-10T10:31:21;12.70;;;10.20;;
9276;SDS011;4676;42.678;23.244;2023-05-10T10:34:01;9.13;;;8.43;;
9276;SDS011;4676;42.678;23.244;2023-05-10T10:36:32;9.03;;;7.63;;
9276;SDS011;4676;42.678;23.244;2023-05-10T10:39:00;8.57;;;7.77;;
9276;SDS011;4676;42.678;23.244;2023-05-10T10:41:29;8.43;;;7.73;;
9276;SDS011;4676;42.678;23.244;2023-05-10T10:46:58;8.23;;;7.63;;
9276;SDS011;4676;42.678;23.244;2023-05-10T10:49:30;7.00;;;6.30;;
9276;SDS011;4676;42.678;23.244;2023-05-10T10:52:20;7.67;;;6.97;;
9276;SDS011;4676;42.678;23.244;2023-05-10T10:54:52;7.67;;;7.17;;
9276;SDS011;4676;42.678;23.244;2023-05-10T10:57:20;6.73;;;6.23;;
9276;SDS011;4676;42.678;23.244;2023-05-10T10:59:47;7.30;;;6.80;;
9276;SDS011;4676;42.678;23.244;2023-05-10T11:02:32;7.53;;;7.03;;
9276;SDS011;4676;42.678;23.244;2023-05-10T11:05:03;13.20;;;9.27;;
9276;SDS011;4676;42.678;23.244;2023-05-10T11:07:59;9.07;;;7.93;;
9276;SDS011;4676;42.678;23.244;2023-05-10T11:10:27;7.53;;;6.73;;
9276;SDS011;4676;42.678;23.244;2023-05-10T11:12:58;8.90;;;7.13;;
9276;SDS011;4676;42.678;23.244;2023-05-10T11:15:29;14.30;;;10.40;;
9276;SDS011;4676;42.678;23.244;2023-05-10T11:17:56;8.73;;;8.03;;
9276;SDS011;4676;42.678;23.244;2023-05-10T11:20:24;7.03;;;6.57;;
9276;SDS011;4676;42.678;23.244;2023-05-10T11:22:58;6.87;;;6.47;;
9276;SDS011;4676;42.678;23.244;2023-05-10T11:25:41;7.80;;;7.13;;
9276;SDS011;4676;42.678;23.244;2023-05-10T11:28:09;8.00;;;7.40;;
9276;SDS011;4676;42.678;23.244;2023-05-10T11:30:36;9.23;;;7.77;;
9276;SDS011;4676;42.678;23.244;2023-05-10T11:33:02;8.87;;;7.90;;
9276;SDS011;4676;42.678;23.244;2023-05-10T11:35:30;9.77;;;6.30;;
9276;SDS011;4676;42.678;23.244;2023-05-10T11:38:02;6.80;;;6.33;;
9276;SDS011;4676;42.678;23.244;2023-05-10T11:40:32;8.17;;;7.33;;
9276;SDS011;4676;42.678;23.244;2023-05-10T11:42:58;8.07;;;6.57;;
9276;SDS011;4676;42.678;23.244;2023-05-10T11:45:25;7.90;;;7.17;;
9276;SDS011;4676;42.678;23.244;2023-05-10T11:47:53;8.10;;;7.40;;
9276;SDS011;4676;42.678;23.244;2023-05-10T11:50:20;6.70;;;6.20;;
9276;SDS011;4676;42.678;23.244;2023-05-10T11:52:51;8.53;;;6.50;;
9276;SDS011;4676;42.678;23.244;2023-05-10T11:55:18;7.43;;;6.80;;
9276;SDS011;4676;42.678;23.244;2023-05-10T11:57:45;7.30;;;6.73;;
9276;SDS011;4676;42.678;23.244;2023-05-10T12:00:12;12.53;;;10.03;;
9276;SDS011;4676;42.678;23.244;2023-05-10T12:02:39;8.57;;;7.77;;
9276;SDS011;4676;42.678;23.244;2023-05-10T12:05:07;9.23;;;8.23;;
9276;SDS011;4676;42.678;23.244;2023-05-10T12:07:34;8.87;;;7.83;;
9276;SDS011;4676;42.678;23.244;2023-05-10T12:10:26;16.03;;;11.53;;
9276;SDS011;4676;42.678;23.244;2023-05-10T12:12:53;7.53;;;6.90;;
9276;SDS011;4676;42.678;23.244;2023-05-10T12:15:20;8.60;;;7.10;;
9276;SDS011;4676;42.678;23.244;2023-05-10T12:17:48;8.20;;;7.30;;
9276;SDS011;4676;42.678;23.244;2023-05-10T12:20:16;11.07;;;8.40;;
9276;SDS011;4676;42.678;23.244;2023-05-10T12:22:45;8.53;;;7.73;;
9276;SDS011;4676;42.678;23.244;2023-05-10T12:25:17;10.27;;;9.27;;
9276;SDS011;4676;42.678;23.244;2023-05-10T12:27:50;8.97;;;8.13;;
9276;SDS011;4676;42.678;23.244;2023-05-10T12:30:22;8.07;;;7.27;;
9276;SDS011;4676;42.678;23.244;2023-05-10T12:32:50;8.77;;;7.47;;
9276;SDS011;4676;42.678;23.244;2023-05-10T12:35:17;7.90;;;7.40;;
9276;SDS011;4676;42.678;23.244;2023-05-10T12:37:47;9.90;;;7.80;;
9276;SDS011;4676;42.678;23.244;2023-05-10T12:40:14;8.37;;;7.10;;
9276;SDS011;4676;42.678;23.244;2023-05-10T12:42:42;8.20;;;7.57;;
9276;SDS011;4676;42.678;23.244;2023-05-10T12:45:10;7.73;;;7.23;;
9276;SDS011;4676;42.678;23.244;2023-05-10T12:47:37;6.73;;;6.23;;
9276;SDS011;4676;42.678;23.244;2023-05-10T12:50:05;7.50;;;6.97;;
9276;SDS011;4676;42.678;23.244;2023-05-10T12:52:32;8.70;;;7.87;;
9276;SDS011;4676;42.678;23.244;2023-05-10T12:54:59;8.60;;;7.73;;
9276;SDS011;4676;42.678;23.244;2023-05-10T12:57:26;8.17;;;7.47;;
9276;SDS011;4676;42.678;23.244;2023-05-10T12:59:55;7.73;;;6.97;;
9276;SDS011;4676;42.678;23.244;2023-05-10T13:02:21;8.77;;;7.97;;
9276;SDS011;4676;42.678;23.244;2023-05-10T13:04:48;8.63;;;7.83;;
9276;SDS011;4676;42.678;23.244;2023-05-10T13:07:15;8.90;;;8.00;;
9276;SDS011;4676;42.678;23.244;2023-05-10T13:09:42;8.07;;;7.47;;
9276;SDS011;4676;42.678;23.244;2023-05-10T13:12:09;13.43;;;7.80;;
9276;SDS011;4676;42.678;23.244;2023-05-10T13:14:35;7.97;;;7.37;;
9276;SDS011;4676;42.678;23.244;2023-05-10T13:17:05;8.83;;;7.70;;
9276;SDS011;4676;42.678;23.244;2023-05-10T13:19:31;13.87;;;7.83;;
9276;SDS011;4676;42.678;23.244;2023-05-10T13:21:58;9.33;;;8.30;;
9276;SDS011;4676;42.678;23.244;2023-05-10T13:24:25;8.43;;;7.70;;
9276;SDS011;4676;42.678;23.244;2023-05-10T13:26:51;9.00;;;7.70;;
9276;SDS011;4676;42.678;23.244;2023-05-10T13:29:18;16.33;;;8.13;;
9276;SDS011;4676;42.678;23.244;2023-05-10T13:31:46;8.50;;;7.37;;
9276;SDS011;4676;42.678;23.244;2023-05-10T13:34:14;7.60;;;7.00;;
9276;SDS011;4676;42.678;23.244;2023-05-10T13:36:40;8.37;;;7.60;;
9276;SDS011;4676;42.678;23.244;2023-05-10T13:39:07;8.60;;;7.80;;
9276;SDS011;4676;42.678;23.244;2023-05-10T13:41:34;8.37;;;7.67;;
9276;SDS011;4676;42.678;23.244;2023-05-10T13:44:01;9.57;;;7.70;;
9276;SDS011;4676;42.678;23.244;2023-05-10T13:46:28;8.40;;;7.67;;
9276;SDS011;4676;42.678;23.244;2023-05-10T13:48:55;9.33;;;8.17;;
9276;SDS011;4676;42.678;23.244;2023-05-10T13:51:24;14.50;;;8.03;;
9276;SDS011;4676;42.678;23.244;2023-05-10T13:53:51;8.17;;;7.43;;
9276;SDS011;4676;42.678;23.244;2023-05-10T13:56:17;7.77;;;7.17;;
9276;SDS011;4676;42.678;23.244;2023-05-10T13:58:44;13.77;;;10.00;;
9276;SDS011;4676;42.678;23.244;2023-05-10T14:01:11;12.43;;;9.87;;
9276;SDS011;4676;42.678;23.244;2023-05-10T14:03:38;14.97;;;11.10;;
9276;SDS011;4676;42.678;23.244;2023-05-10T14:06:04;23.80;;;10.17;;
9276;SDS011;4676;42.678;23.244;2023-05-10T14:08:33;9.10;;;8.30;;
9276;SDS011;4676;42.678;23.244;2023-05-10T14:11:00;8.47;;;7.43;;
9276;SDS011;4676;42.678;23.244;2023-05-10T14:13:27;9.70;;;7.87;;
9276;SDS011;4676;42.678;23.244;2023-05-10T14:15:54;14.97;;;7.27;;
9276;SDS011;4676;42.678;23.244;2023-05-10T14:18:21;8.00;;;7.27;;
9276;SDS011;4676;42.678;23.244;2023-05-10T14:20:48;8.50;;;7.80;;
9276;SDS011;4676;42.678;23.244;2023-05-10T14:23:15;8.93;;;7.37;;
9276;SDS011;4676;42.678;23.244;2023-05-10T14:25:43;10.13;;;7.50;;
9276;SDS011;4676;42.678;23.244;2023-05-10T14:28:10;8.17;;;7.43;;
9276;SDS011;4676;42.678;23.244;2023-05-10T14:30:37;10.03;;;7.83;;
9276;SDS011;4676;42.678;23.244;2023-05-10T14:33:04;8.60;;;7.70;;
9276;SDS011;4676;42.678;23.244;2023-05-10T14:35:30;8.80;;;8.00;;
9276;SDS011;4676;42.678;23.244;2023-05-10T14:37:57;8.20;;;7.47;;
9276;SDS011;4676;42.678;23.244;2023-05-10T14:40:24;7.87;;;7.07;;
9276;SDS011;4676;42.678;23.244;2023-05-10T14:42:52;7.90;;;7.30;;
9276;SDS011;4676;42.678;23.244;2023-05-10T14:45:19;7.17;;;6.67;;
9276;SDS011;4676;42.678;23.244;2023-05-10T14:47:46;8.07;;;7.37;;
9276;SDS011;4676;42.678;23.244;2023-05-10T14:50:13;7.43;;;6.93;;
9276;SDS011;4676;42.678;23.244;2023-05-10T14:52:40;8.03;;;7.30;;
9276;SDS011;4676;42.678;23.244;2023-05-10T14:55:07;7.60;;;6.90;;
9276;SDS011;4676;42.678;23.244;2023-05-10T14:57:34;7.97;;;7.33;;
9276;SDS011;4676;42.678;23.244;2023-05-10T15:00:03;8.30;;;7.50;;
9276;SDS011;4676;42.678;23.244;2023-05-10T15:02:30;9.23;;;7.80;;
9276;SDS011;4676;42.678;23.244;2023-05-10T15:04:57;7.80;;;7.10;;
9276;SDS011;4676;42.678;23.244;2023-05-10T15:07:24;9.03;;;8.23;;
9276;SDS011;4676;42.678;23.244;2023-05-10T15:09:50;12.20;;;7.40;;